sensor_id;sensor_type;location;lat;lon;timestamp;P1;durP1;ratioP1;P2;durP2;ratioP2
30472;SDS011;17263;48.160;11.452;2023-08-06T00:00:25;5.23;;;4.77;;
30472;SDS011;17263;48.160;11.452;2023-08-06T00:02:51;5.23;;;4.80;;
30472;SDS011;17263;48.160;11.452;2023-08-06T00:05:17;5.50;;;4.73;;
30472;SDS011;17263;48.160;11.452;2023-08-06T00:07:44;7.07;;;5.03;;
30472;SDS011;17263;48.160;11.452;2023-08-06T00:10:10;6.10;;;4.67;;
30472;SDS011;17263;48.160;11.452;2023-08-06T00:12:36;6.27;;;5.10;;
30472;SDS011;17263;48.160;11.452;2023-08-06T00:15:03;5.40;;;4.90;;
30472;SDS011;17263;48.160;11.452;2023-08-06T00:17:29;5.53;;;5.03;;
30472;SDS011;17263;48.160;11.452;2023-08-06T00:19:55;7.10;;;4.83;;
30472;SDS011;17263;48.160;11.452;2023-08-06T00:22:21;5.20;;;4.80;;
30472;SDS011;17263;48.160;11.452;2023-08-06T00:24:47;6.03;;;5.43;;
30472;SDS011;17263;48.160;11.452;2023-08-06T00:27:13;6.70;;;6.13;;
30472;SDS011;17263;48.160;11.452;2023-08-06T00:29:39;5.80;;;5.10;;
30472;SDS011;17263;48.160;11.452;2023-08-06T00:32:05;4.70;;;4.30;;
30472;SDS011;17263;48.160;11.452;2023-08-06T00:34:31;4.07;;;3.70;;
30472;SDS011;17263;48.160;11.452;2023-08-06T00:36:57;4.13;;;3.60;;
30472;SDS011;17263;48.160;11.452;2023-08-06T00:39:23;4.03;;;3.73;;
30472;SDS011;17263;48.160;11.452;2023-08-06T00:41:49;4.93;;;4.27;;
30472;SDS011;17263;48.160;11.452;2023-08-06T00:44:15;4.73;;;4.07;;
30472;SDS011;17263;48.160;11.452;2023-08-06T00:46:41;4.50;;;4.10;;
30472;SDS011;17263;48.160;11.452;2023-08-06T00:49:07;4.57;;;4.13;;
30472;SDS011;17263;48.160;11.452;2023-08-06T00:51:34;4.93;;;4.00;;
30472;SDS011;17263;48.160;11.452;2023-08-06T00:54:00;4.30;;;3.90;;
30472;SDS011;17263;48.160;11.452;2023-08-06T00:56:27;4.73;;;4.23;;
30472;SDS011;17263;48.160;11.452;2023-08-06T00:58:54;3.83;;;3.53;;
30472;SDS011;17263;48.160;11.452;2023-08-06T01:01:20;3.90;;;3.40;;
30472;SDS011;17263;48.160;11.452;2023-08-06T01:03:46;3.80;;;3.40;;
30472;SDS011;17263;48.160;11.452;2023-08-06T01:06:12;3.93;;;3.40;;
30472;SDS011;17263;48.160;11.452;2023-08-06T01:11:31;3.90;;;3.60;;
30472;SDS011;17263;48.160;11.452;2023-08-06T01:14:08;4.33;;;3.97;;
30472;SDS011;17263;48.160;11.452;2023-08-06T01:16:43;4.47;;;3.60;;
30472;SDS011;17263;48.160;11.452;2023-08-06T01:19:17;4.40;;;4.00;;
30472;SDS011;17263;48.160;11.452;2023-08-06T01:21:43;4.30;;;3.90;;
30472;SDS011;17263;48.160;11.452;2023-08-06T01:24:09;6.27;;;4.17;;
30472;SDS011;17263;48.160;11.452;2023-08-06T01:26:42;5.70;;;4.80;;
30472;SDS011;17263;48.160;11.452;2023-08-06T01:29:19;4.80;;;4.40;;
30472;SDS011;17263;48.160;11.452;2023-08-06T01:31:55;6.10;;;5.07;;
30472;SDS011;17263;48.160;11.452;2023-08-06T01:34:27;5.90;;;5.30;;
30472;SDS011;17263;48.160;11.452;2023-08-06T01:36:56;9.40;;;5.70;;
30472;SDS011;17263;48.160;11.452;2023-08-06T01:39:23;9.33;;;5.70;;
30472;SDS011;17263;48.160;11.452;2023-08-06T01:41:49;5.63;;;5.13;;
30472;SDS011;17263;48.160;11.452;2023-08-06T01:44:15;6.73;;;5.10;;
30472;SDS011;17263;48.160;11.452;2023-08-06T01:46:41;5.87;;;4.73;;
30472;SDS011;17263;48.160;11.452;2023-08-06T01:49:08;6.67;;;4.77;;
30472;SDS011;17263;48.160;11.452;2023-08-06T01:51:34;6.37;;;5.03;;
30472;SDS011;17263;48.160;11.452;2023-08-06T01:54:00;5.53;;;4.90;;
30472;SDS011;17263;48.160;11.452;2023-08-06T01:56:26;6.00;;;5.40;;
30472;SDS011;17263;48.160;11.452;2023-08-06T01:58:52;5.30;;;4.80;;
30472;SDS011;17263;48.160;11.452;2023-08-06T02:01:18;7.07;;;5.17;;
30472;SDS011;17263;48.160;11.452;2023-08-06T02:03:44;5.23;;;4.77;;
30472;SDS011;17263;48.160;11.452;2023-08-06T02:06:10;5.37;;;4.87;;
30472;SDS011;17263;48.160;11.452;2023-08-06T02:08:36;5.13;;;4.63;;
30472;SDS011;17263;48.160;11.452;2023-08-06T02:11:02;4.60;;;4.20;;
30472;SDS011;17263;48.160;11.452;2023-08-06T02:13:28;5.50;;;4.40;;
30472;SDS011;17263;48.160;11.452;2023-08-06T02:15:54;6.03;;;3.80;;
30472;SDS011;17263;48.160;11.452;2023-08-06T02:18:20;5.37;;;4.17;;
30472;SDS011;17263;48.160;11.452;2023-08-06T02:21:04;4.30;;;3.57;;
30472;SDS011;17263;48.160;11.452;2023-08-06T02:23:30;4.30;;;3.50;;
30472;SDS011;17263;48.160;11.452;2023-08-06T02:26:03;4.00;;;3.60;;
30472;SDS011;17263;48.160;11.452;2023-08-06T02:28:30;3.83;;;3.53;;
30472;SDS011;17263;48.160;11.452;2023-08-06T02:30:57;3.97;;;3.20;;
30472;SDS011;17263;48.160;11.452;2023-08-06T02:33:23;3.77;;;3.37;;
30472;SDS011;17263;48.160;11.452;2023-08-06T02:35:49;4.37;;;3.93;;
30472;SDS011;17263;48.160;11.452;2023-08-06T02:38:15;4.20;;;3.80;;
30472;SDS011;17263;48.160;11.452;2023-08-06T02:40:47;3.77;;;3.33;;
30472;SDS011;17263;48.160;11.452;2023-08-06T02:43:13;3.53;;;3.23;;
30472;SDS011;17263;48.160;11.452;2023-08-06T02:45:40;3.90;;;3.47;;
30472;SDS011;17263;48.160;11.452;2023-08-06T02:48:06;3.80;;;3.40;;
30472;SDS011;17263;48.160;11.452;2023-08-06T02:50:37;4.67;;;3.40;;
30472;SDS011;17263;48.160;11.452;2023-08-06T02:53:07;4.10;;;3.70;;
30472;SDS011;17263;48.160;11.452;2023-08-06T02:55:34;4.20;;;3.40;;
30472;SDS011;17263;48.160;11.452;2023-08-06T02:58:03;4.10;;;3.30;;
30472;SDS011;17263;48.160;11.452;2023-08-06T03:00:29;4.17;;;3.17;;
30472;SDS011;17263;48.160;11.452;2023-08-06T03:02:55;4.23;;;3.33;;
30472;SDS011;17263;48.160;11.452;2023-08-06T03:05:21;3.73;;;3.43;;
30472;SDS011;17263;48.160;11.452;2023-08-06T03:07:47;4.10;;;2.90;;
30472;SDS011;17263;48.160;11.452;2023-08-06T03:10:13;3.40;;;3.10;;
30472;SDS011;17263;48.160;11.452;2023-08-06T03:12:39;3.53;;;3.23;;
30472;SDS011;17263;48.160;11.452;2023-08-06T03:15:05;3.90;;;3.17;;
30472;SDS011;17263;48.160;11.452;2023-08-06T03:17:32;4.10;;;2.93;;
30472;SDS011;17263;48.160;11.452;2023-08-06T03:19:58;4.70;;;3.37;;
30472;SDS011;17263;48.160;11.452;2023-08-06T03:22:24;3.57;;;3.27;;
30472;SDS011;17263;48.160;11.452;2023-08-06T03:24:50;4.40;;;3.10;;
30472;SDS011;17263;48.160;11.452;2023-08-06T03:27:17;5.63;;;3.53;;
30472;SDS011;17263;48.160;11.452;2023-08-06T03:29:43;3.53;;;3.20;;
30472;SDS011;17263;48.160;11.452;2023-08-06T03:32:09;3.57;;;3.27;;
30472;SDS011;17263;48.160;11.452;2023-08-06T03:34:35;4.60;;;3.47;;
30472;SDS011;17263;48.160;11.452;2023-08-06T03:37:01;3.63;;;3.20;;
30472;SDS011;17263;48.160;11.452;2023-08-06T03:39:27;4.13;;;3.73;;
30472;SDS011;17263;48.160;11.452;2023-08-06T03:41:53;4.93;;;3.20;;
30472;SDS011;17263;48.160;11.452;2023-08-06T03:44:19;3.60;;;3.30;;
30472;SDS011;17263;48.160;11.452;2023-08-06T03:46:45;4.00;;;3.23;;
30472;SDS011;17263;48.160;11.452;2023-08-06T03:49:11;3.53;;;3.20;;
30472;SDS011;17263;48.160;11.452;2023-08-06T03:51:37;3.57;;;3.10;;
30472;SDS011;17263;48.160;11.452;2023-08-06T03:54:03;5.60;;;3.00;;
30472;SDS011;17263;48.160;11.452;2023-08-06T03:56:29;3.30;;;2.90;;
30472;SDS011;17263;48.160;11.452;2023-08-06T03:58:55;3.50;;;3.20;;
30472;SDS011;17263;48.160;11.452;2023-08-06T04:01:21;2.80;;;2.60;;
30472;SDS011;17263;48.160;11.452;2023-08-06T04:03:47;4.20;;;3.17;;
30472;SDS011;17263;48.160;11.452;2023-08-06T04:06:13;2.60;;;2.40;;
30472;SDS011;17263;48.160;11.452;2023-08-06T04:08:39;6.90;;;3.10;;
30472;SDS011;17263;48.160;11.452;2023-08-06T04:11:06;2.40;;;2.20;;
30472;SDS011;17263;48.160;11.452;2023-08-06T04:13:32;3.17;;;2.80;;
30472;SDS011;17263;48.160;11.452;2023-08-06T04:16:03;4.43;;;3.10;;
30472;SDS011;17263;48.160;11.452;2023-08-06T04:18:29;3.00;;;2.70;;
30472;SDS011;17263;48.160;11.452;2023-08-06T04:20:55;3.37;;;3.07;;
30472;SDS011;17263;48.160;11.452;2023-08-06T04:23:23;5.67;;;2.90;;
30472;SDS011;17263;48.160;11.452;2023-08-06T04:25:49;3.10;;;2.67;;
30472;SDS011;17263;48.160;11.452;2023-08-06T04:28:15;3.90;;;2.90;;
30472;SDS011;17263;48.160;11.452;2023-08-06T04:30:41;3.70;;;2.67;;
30472;SDS011;17263;48.160;11.452;2023-08-06T04:33:07;3.20;;;2.90;;
30472;SDS011;17263;48.160;11.452;2023-08-06T04:35:33;3.57;;;2.73;;
30472;SDS011;17263;48.160;11.452;2023-08-06T04:37:59;2.33;;;2.13;;
30472;SDS011;17263;48.160;11.452;2023-08-06T04:40:25;4.97;;;2.80;;
30472;SDS011;17263;48.160;11.452;2023-08-06T04:42:51;2.87;;;2.63;;
30472;SDS011;17263;48.160;11.452;2023-08-06T04:45:18;2.90;;;2.60;;
30472;SDS011;17263;48.160;11.452;2023-08-06T04:47:44;2.90;;;2.60;;
30472;SDS011;17263;48.160;11.452;2023-08-06T04:50:10;4.00;;;2.90;;
30472;SDS011;17263;48.160;11.452;2023-08-06T04:52:37;4.20;;;2.97;;
30472;SDS011;17263;48.160;11.452;2023-08-06T04:55:03;3.10;;;2.80;;
30472;SDS011;17263;48.160;11.452;2023-08-06T04:57:31;2.77;;;2.57;;
30472;SDS011;17263;48.160;11.452;2023-08-06T04:59:57;3.00;;;2.70;;
30472;SDS011;17263;48.160;11.452;2023-08-06T05:02:23;3.20;;;2.90;;
30472;SDS011;17263;48.160;11.452;2023-08-06T05:04:49;2.80;;;2.60;;
30472;SDS011;17263;48.160;11.452;2023-08-06T05:07:15;3.03;;;2.73;;
30472;SDS011;17263;48.160;11.452;2023-08-06T05:09:41;2.93;;;2.67;;
30472;SDS011;17263;48.160;11.452;2023-08-06T05:12:07;4.23;;;2.80;;
30472;SDS011;17263;48.160;11.452;2023-08-06T05:14:33;2.67;;;2.40;;
30472;SDS011;17263;48.160;11.452;2023-08-06T05:16:59;3.30;;;2.70;;
30472;SDS011;17263;48.160;11.452;2023-08-06T05:19:27;2.90;;;2.70;;
30472;SDS011;17263;48.160;11.452;2023-08-06T05:21:53;2.70;;;2.50;;
30472;SDS011;17263;48.160;11.452;2023-08-06T05:24:19;3.17;;;2.53;;
30472;SDS011;17263;48.160;11.452;2023-08-06T05:26:45;3.40;;;2.87;;
30472;SDS011;17263;48.160;11.452;2023-08-06T05:29:13;2.63;;;2.43;;
30472;SDS011;17263;48.160;11.452;2023-08-06T05:31:39;3.20;;;2.67;;
30472;SDS011;17263;48.160;11.452;2023-08-06T05:34:05;2.83;;;2.53;;
30472;SDS011;17263;48.160;11.452;2023-08-06T05:36:33;3.07;;;2.80;;
30472;SDS011;17263;48.160;11.452;2023-08-06T05:38:59;2.60;;;2.40;;
30472;SDS011;17263;48.160;11.452;2023-08-06T05:41:25;3.73;;;2.63;;
30472;SDS011;17263;48.160;11.452;2023-08-06T05:43:51;3.03;;;2.47;;
30472;SDS011;17263;48.160;11.452;2023-08-06T05:46:17;3.13;;;2.40;;
30472;SDS011;17263;48.160;11.452;2023-08-06T05:48:43;3.27;;;2.40;;
30472;SDS011;17263;48.160;11.452;2023-08-06T05:51:09;2.77;;;2.53;;
30472;SDS011;17263;48.160;11.452;2023-08-06T05:53:38;3.03;;;2.57;;
30472;SDS011;17263;48.160;11.452;2023-08-06T05:56:04;3.60;;;2.20;;
30472;SDS011;17263;48.160;11.452;2023-08-06T05:58:30;4.77;;;2.50;;
30472;SDS011;17263;48.160;11.452;2023-08-06T06:00:56;3.60;;;2.40;;
30472;SDS011;17263;48.160;11.452;2023-08-06T06:03:22;2.80;;;2.37;;
30472;SDS011;17263;48.160;11.452;2023-08-06T06:05:48;4.70;;;2.37;;
30472;SDS011;17263;48.160;11.452;2023-08-06T06:08:14;3.37;;;2.37;;
30472;SDS011;17263;48.160;11.452;2023-08-06T06:10:40;2.80;;;2.50;;
30472;SDS011;17263;48.160;11.452;2023-08-06T06:13:06;2.70;;;2.40;;
30472;SDS011;17263;48.160;11.452;2023-08-06T06:15:32;3.67;;;2.13;;
30472;SDS011;17263;48.160;11.452;2023-08-06T06:17:58;2.50;;;2.20;;
30472;SDS011;17263;48.160;11.452;2023-08-06T06:20:24;2.50;;;2.00;;
30472;SDS011;17263;48.160;11.452;2023-08-06T06:22:50;2.70;;;2.20;;
30472;SDS011;17263;48.160;11.452;2023-08-06T06:25:16;5.00;;;2.03;;
30472;SDS011;17263;48.160;11.452;2023-08-06T06:27:43;2.63;;;2.07;;
30472;SDS011;17263;48.160;11.452;2023-08-06T06:30:09;2.10;;;1.90;;
30472;SDS011;17263;48.160;11.452;2023-08-06T06:32:37;2.83;;;2.03;;
30472;SDS011;17263;48.160;11.452;2023-08-06T06:35:03;2.70;;;2.03;;
30472;SDS011;17263;48.160;11.452;2023-08-06T06:37:29;2.50;;;1.90;;
30472;SDS011;17263;48.160;11.452;2023-08-06T06:39:55;2.20;;;1.80;;
30472;SDS011;17263;48.160;11.452;2023-08-06T06:42:21;4.00;;;1.83;;
30472;SDS011;17263;48.160;11.452;2023-08-06T06:44:48;2.67;;;1.93;;
30472;SDS011;17263;48.160;11.452;2023-08-06T06:47:14;2.67;;;1.90;;
30472;SDS011;17263;48.160;11.452;2023-08-06T06:49:40;2.20;;;2.00;;
30472;SDS011;17263;48.160;11.452;2023-08-06T06:52:06;2.27;;;1.50;;
30472;SDS011;17263;48.160;11.452;2023-08-06T06:54:32;6.50;;;1.60;;
30472;SDS011;17263;48.160;11.452;2023-08-06T06:56:58;3.43;;;1.80;;
30472;SDS011;17263;48.160;11.452;2023-08-06T06:59:24;2.47;;;1.50;;
30472;SDS011;17263;48.160;11.452;2023-08-06T07:01:50;1.43;;;1.30;;
30472;SDS011;17263;48.160;11.452;2023-08-06T07:04:16;2.07;;;1.50;;
30472;SDS011;17263;48.160;11.452;2023-08-06T07:06:42;2.20;;;1.50;;
30472;SDS011;17263;48.160;11.452;2023-08-06T07:09:08;2.60;;;1.30;;
30472;SDS011;17263;48.160;11.452;2023-08-06T07:11:34;2.03;;;1.13;;
30472;SDS011;17263;48.160;11.452;2023-08-06T07:14:00;1.80;;;1.13;;
30472;SDS011;17263;48.160;11.452;2023-08-06T07:16:27;1.80;;;1.27;;
30472;SDS011;17263;48.160;11.452;2023-08-06T07:18:53;2.60;;;1.30;;
30472;SDS011;17263;48.160;11.452;2023-08-06T07:21:19;1.30;;;1.20;;
30472;SDS011;17263;48.160;11.452;2023-08-06T07:23:46;2.10;;;1.23;;
30472;SDS011;17263;48.160;11.452;2023-08-06T07:26:12;2.20;;;1.10;;
30472;SDS011;17263;48.160;11.452;2023-08-06T07:28:38;3.47;;;1.30;;
30472;SDS011;17263;48.160;11.452;2023-08-06T07:31:04;2.13;;;1.20;;
30472;SDS011;17263;48.160;11.452;2023-08-06T07:33:30;1.40;;;1.23;;
30472;SDS011;17263;48.160;11.452;2023-08-06T07:35:56;2.40;;;1.20;;
30472;SDS011;17263;48.160;11.452;2023-08-06T07:38:22;1.37;;;1.20;;
30472;SDS011;17263;48.160;11.452;2023-08-06T07:40:48;1.73;;;1.47;;
30472;SDS011;17263;48.160;11.452;2023-08-06T07:43:14;1.47;;;0.93;;
30472;SDS011;17263;48.160;11.452;2023-08-06T07:45:40;1.20;;;1.10;;
30472;SDS011;17263;48.160;11.452;2023-08-06T07:48:06;1.87;;;1.20;;
30472;SDS011;17263;48.160;11.452;2023-08-06T07:50:32;1.50;;;1.10;;
30472;SDS011;17263;48.160;11.452;2023-08-06T07:52:58;3.53;;;1.50;;
30472;SDS011;17263;48.160;11.452;2023-08-06T07:55:24;2.60;;;1.10;;
30472;SDS011;17263;48.160;11.452;2023-08-06T07:57:51;2.03;;;1.57;;
30472;SDS011;17263;48.160;11.452;2023-08-06T08:00:17;1.80;;;1.20;;
30472;SDS011;17263;48.160;11.452;2023-08-06T08:02:43;2.30;;;1.30;;
30472;SDS011;17263;48.160;11.452;2023-08-06T08:05:09;1.40;;;1.10;;
30472;SDS011;17263;48.160;11.452;2023-08-06T08:07:35;1.47;;;1.20;;
30472;SDS011;17263;48.160;11.452;2023-08-06T08:10:01;1.57;;;1.07;;
30472;SDS011;17263;48.160;11.452;2023-08-06T08:12:27;1.83;;;1.33;;
30472;SDS011;17263;48.160;11.452;2023-08-06T08:14:53;1.53;;;1.17;;
30472;SDS011;17263;48.160;11.452;2023-08-06T08:17:19;2.03;;;1.10;;
30472;SDS011;17263;48.160;11.452;2023-08-06T08:19:45;2.97;;;1.30;;
30472;SDS011;17263;48.160;11.452;2023-08-06T08:22:11;1.47;;;1.23;;
30472;SDS011;17263;48.160;11.452;2023-08-06T08:24:37;1.10;;;0.90;;
30472;SDS011;17263;48.160;11.452;2023-08-06T08:27:03;1.97;;;0.97;;
30472;SDS011;17263;48.160;11.452;2023-08-06T08:29:29;1.40;;;1.00;;
30472;SDS011;17263;48.160;11.452;2023-08-06T08:31:55;3.87;;;1.07;;
30472;SDS011;17263;48.160;11.452;2023-08-06T08:34:21;1.10;;;1.00;;
30472;SDS011;17263;48.160;11.452;2023-08-06T08:36:47;1.50;;;1.17;;
30472;SDS011;17263;48.160;11.452;2023-08-06T08:39:15;0.97;;;0.93;;
30472;SDS011;17263;48.160;11.452;2023-08-06T08:41:41;2.00;;;0.90;;
30472;SDS011;17263;48.160;11.452;2023-08-06T08:44:08;1.20;;;0.70;;
30472;SDS011;17263;48.160;11.452;2023-08-06T08:46:36;1.00;;;0.70;;
30472;SDS011;17263;48.160;11.452;2023-08-06T08:49:04;1.23;;;0.60;;
30472;SDS011;17263;48.160;11.452;2023-08-06T08:51:30;1.90;;;0.80;;
30472;SDS011;17263;48.160;11.452;2023-08-06T08:53:57;2.60;;;0.80;;
30472;SDS011;17263;48.160;11.452;2023-08-06T08:56:23;0.60;;;0.60;;
30472;SDS011;17263;48.160;11.452;2023-08-06T08:58:50;2.27;;;0.77;;
30472;SDS011;17263;48.160;11.452;2023-08-06T09:01:18;1.33;;;0.60;;
30472;SDS011;17263;48.160;11.452;2023-08-06T09:03:46;1.20;;;0.80;;
30472;SDS011;17263;48.160;11.452;2023-08-06T09:06:12;1.60;;;0.83;;
30472;SDS011;17263;48.160;11.452;2023-08-06T09:08:41;1.23;;;0.70;;
30472;SDS011;17263;48.160;11.452;2023-08-06T09:11:14;1.00;;;0.90;;
30472;SDS011;17263;48.160;11.452;2023-08-06T09:13:41;2.27;;;0.90;;
30472;SDS011;17263;48.160;11.452;2023-08-06T09:16:07;0.63;;;0.50;;
30472;SDS011;17263;48.160;11.452;2023-08-06T09:18:33;3.50;;;0.60;;
30472;SDS011;17263;48.160;11.452;2023-08-06T09:20:59;2.37;;;0.50;;
30472;SDS011;17263;48.160;11.452;2023-08-06T09:23:29;1.17;;;0.53;;
30472;SDS011;17263;48.160;11.452;2023-08-06T09:25:56;3.33;;;0.60;;
30472;SDS011;17263;48.160;11.452;2023-08-06T09:28:23;1.47;;;0.63;;
30472;SDS011;17263;48.160;11.452;2023-08-06T09:30:50;0.73;;;0.50;;
30472;SDS011;17263;48.160;11.452;2023-08-06T09:33:18;1.17;;;0.50;;
30472;SDS011;17263;48.160;11.452;2023-08-06T09:35:45;2.83;;;0.73;;
30472;SDS011;17263;48.160;11.452;2023-08-06T09:38:12;0.70;;;0.50;;
30472;SDS011;17263;48.160;11.452;2023-08-06T09:40:39;0.73;;;0.43;;
30472;SDS011;17263;48.160;11.452;2023-08-06T09:43:05;2.00;;;0.70;;
30472;SDS011;17263;48.160;11.452;2023-08-06T09:45:35;1.00;;;0.47;;
30472;SDS011;17263;48.160;11.452;2023-08-06T09:48:03;0.83;;;0.50;;
30472;SDS011;17263;48.160;11.452;2023-08-06T09:50:34;3.73;;;0.50;;
30472;SDS011;17263;48.160;11.452;2023-08-06T09:53:02;3.30;;;0.40;;
30472;SDS011;17263;48.160;11.452;2023-08-06T09:55:32;1.17;;;0.60;;
30472;SDS011;17263;48.160;11.452;2023-08-06T09:57:59;1.27;;;0.40;;
30472;SDS011;17263;48.160;11.452;2023-08-06T10:00:25;0.33;;;0.13;;
30472;SDS011;17263;48.160;11.452;2023-08-06T10:02:53;1.63;;;0.40;;
30472;SDS011;17263;48.160;11.452;2023-08-06T10:05:21;1.07;;;0.40;;
30472;SDS011;17263;48.160;11.452;2023-08-06T10:07:49;1.43;;;0.40;;
30472;SDS011;17263;48.160;11.452;2023-08-06T10:10:18;0.83;;;0.40;;
30472;SDS011;17263;48.160;11.452;2023-08-06T10:12:51;1.37;;;0.50;;
30472;SDS011;17263;48.160;11.452;2023-08-06T10:15:26;0.53;;;0.20;;
30472;SDS011;17263;48.160;11.452;2023-08-06T10:17:56;1.10;;;0.40;;
30472;SDS011;17263;48.160;11.452;2023-08-06T10:20:24;1.47;;;0.37;;
30472;SDS011;17263;48.160;11.452;2023-08-06T10:23:00;2.47;;;0.60;;
30472;SDS011;17263;48.160;11.452;2023-08-06T10:25:30;0.73;;;0.50;;
30472;SDS011;17263;48.160;11.452;2023-08-06T10:27:57;2.00;;;0.37;;
30472;SDS011;17263;48.160;11.452;2023-08-06T10:30:30;0.80;;;0.47;;
30472;SDS011;17263;48.160;11.452;2023-08-06T10:35:28;1.30;;;0.50;;
30472;SDS011;17263;48.160;11.452;2023-08-06T10:38:05;0.80;;;0.40;;
30472;SDS011;17263;48.160;11.452;2023-08-06T10:45:59;2.03;;;1.07;;
30472;SDS011;17263;48.160;11.452;2023-08-06T10:50:59;0.27;;;0.27;;
30472;SDS011;17263;48.160;11.452;2023-08-06T10:53:26;0.90;;;0.30;;
30472;SDS011;17263;48.160;11.452;2023-08-06T10:55:52;2.63;;;0.77;;
30472;SDS011;17263;48.160;11.452;2023-08-06T10:58:18;1.70;;;0.90;;
30472;SDS011;17263;48.160;11.452;2023-08-06T11:00:45;0.50;;;0.50;;
30472;SDS011;17263;48.160;11.452;2023-08-06T11:03:11;0.67;;;0.47;;
30472;SDS011;17263;48.160;11.452;2023-08-06T11:05:37;0.87;;;0.43;;
30472;SDS011;17263;48.160;11.452;2023-08-06T11:08:04;0.63;;;0.30;;
30472;SDS011;17263;48.160;11.452;2023-08-06T11:10:32;1.10;;;0.33;;
30472;SDS011;17263;48.160;11.452;2023-08-06T11:13:03;1.93;;;0.60;;
30472;SDS011;17263;48.160;11.452;2023-08-06T11:15:30;2.03;;;0.30;;
30472;SDS011;17263;48.160;11.452;2023-08-06T11:17:56;0.20;;;0.20;;
30472;SDS011;17263;48.160;11.452;2023-08-06T11:20:22;2.03;;;0.30;;
30472;SDS011;17263;48.160;11.452;2023-08-06T11:22:49;2.13;;;0.27;;
30472;SDS011;17263;48.160;11.452;2023-08-06T11:25:16;0.50;;;0.50;;
30472;SDS011;17263;48.160;11.452;2023-08-06T11:27:45;0.13;;;0.13;;
30472;SDS011;17263;48.160;11.452;2023-08-06T11:30:11;1.43;;;0.37;;
30472;SDS011;17263;48.160;11.452;2023-08-06T11:32:47;3.90;;;0.40;;
30472;SDS011;17263;48.160;11.452;2023-08-06T11:35:14;1.90;;;0.40;;
30472;SDS011;17263;48.160;11.452;2023-08-06T11:37:47;0.17;;;0.10;;
30472;SDS011;17263;48.160;11.452;2023-08-06T11:40:14;0.30;;;0.30;;
30472;SDS011;17263;48.160;11.452;2023-08-06T11:42:40;0.50;;;0.30;;
30472;SDS011;17263;48.160;11.452;2023-08-06T11:45:08;0.20;;;0.20;;
30472;SDS011;17263;48.160;11.452;2023-08-06T11:47:37;0.47;;;0.20;;
30472;SDS011;17263;48.160;11.452;2023-08-06T11:50:05;0.10;;;0.10;;
30472;SDS011;17263;48.160;11.452;2023-08-06T11:52:32;0.20;;;0.20;;
30472;SDS011;17263;48.160;11.452;2023-08-06T11:55:01;0.47;;;0.20;;
30472;SDS011;17263;48.160;11.452;2023-08-06T11:57:29;0.27;;;0.23;;
30472;SDS011;17263;48.160;11.452;2023-08-06T12:00:01;0.10;;;0.10;;
30472;SDS011;17263;48.160;11.452;2023-08-06T12:02:32;0.53;;;0.20;;
30472;SDS011;17263;48.160;11.452;2023-08-06T12:07:31;0.70;;;0.40;;
30472;SDS011;17263;48.160;11.452;2023-08-06T12:09:58;1.60;;;0.40;;
30472;SDS011;17263;48.160;11.452;2023-08-06T12:12:25;0.20;;;0.20;;
30472;SDS011;17263;48.160;11.452;2023-08-06T12:14:51;0.27;;;0.20;;
30472;SDS011;17263;48.160;11.452;2023-08-06T12:17:17;0.37;;;0.37;;
30472;SDS011;17263;48.160;11.452;2023-08-06T12:19:44;0.77;;;0.10;;
30472;SDS011;17263;48.160;11.452;2023-08-06T12:22:11;0.27;;;0.23;;
30472;SDS011;17263;48.160;11.452;2023-08-06T12:24:39;0.37;;;0.30;;
30472;SDS011;17263;48.160;11.452;2023-08-06T12:27:08;0.40;;;0.20;;
30472;SDS011;17263;48.160;11.452;2023-08-06T12:29:35;1.50;;;0.20;;
30472;SDS011;17263;48.160;11.452;2023-08-06T12:32:03;1.37;;;0.30;;
30472;SDS011;17263;48.160;11.452;2023-08-06T12:34:29;0.63;;;0.30;;
30472;SDS011;17263;48.160;11.452;2023-08-06T12:36:55;0.30;;;0.30;;
30472;SDS011;17263;48.160;11.452;2023-08-06T12:39:21;0.70;;;0.50;;
30472;SDS011;17263;48.160;11.452;2023-08-06T12:41:47;0.50;;;0.40;;
30472;SDS011;17263;48.160;11.452;2023-08-06T12:44:14;0.73;;;0.50;;
30472;SDS011;17263;48.160;11.452;2023-08-06T12:46:40;2.50;;;0.60;;
30472;SDS011;17263;48.160;11.452;2023-08-06T12:49:06;1.27;;;0.80;;
30472;SDS011;17263;48.160;11.452;2023-08-06T12:51:32;0.40;;;0.40;;
30472;SDS011;17263;48.160;11.452;2023-08-06T12:53:59;1.23;;;0.60;;
30472;SDS011;17263;48.160;11.452;2023-08-06T12:56:25;0.87;;;0.43;;
30472;SDS011;17263;48.160;11.452;2023-08-06T12:58:51;0.40;;;0.40;;
30472;SDS011;17263;48.160;11.452;2023-08-06T13:01:17;2.93;;;0.60;;
30472;SDS011;17263;48.160;11.452;2023-08-06T13:03:43;0.33;;;0.20;;
30472;SDS011;17263;48.160;11.452;2023-08-06T13:06:09;0.10;;;0.10;;
30472;SDS011;17263;48.160;11.452;2023-08-06T13:08:36;1.70;;;0.83;;
30472;SDS011;17263;48.160;11.452;2023-08-06T13:11:02;1.80;;;0.50;;
30472;SDS011;17263;48.160;11.452;2023-08-06T13:13:28;0.40;;;0.40;;
30472;SDS011;17263;48.160;11.452;2023-08-06T13:15:54;0.80;;;0.37;;
30472;SDS011;17263;48.160;11.452;2023-08-06T13:18:20;1.50;;;0.50;;
30472;SDS011;17263;48.160;11.452;2023-08-06T13:20:46;0.63;;;0.30;;
30472;SDS011;17263;48.160;11.452;2023-08-06T13:23:15;0.40;;;0.40;;
30472;SDS011;17263;48.160;11.452;2023-08-06T13:25:42;0.80;;;0.60;;
30472;SDS011;17263;48.160;11.452;2023-08-06T13:28:08;0.30;;;0.30;;
30472;SDS011;17263;48.160;11.452;2023-08-06T13:30:34;1.80;;;0.43;;
30472;SDS011;17263;48.160;11.452;2023-08-06T13:33:10;1.70;;;0.70;;
30472;SDS011;17263;48.160;11.452;2023-08-06T13:35:37;1.87;;;0.40;;
30472;SDS011;17263;48.160;11.452;2023-08-06T13:38:04;0.50;;;0.47;;
30472;SDS011;17263;48.160;11.452;2023-08-06T13:40:31;5.70;;;0.43;;
30472;SDS011;17263;48.160;11.452;2023-08-06T13:42:58;0.43;;;0.30;;
30472;SDS011;17263;48.160;11.452;2023-08-06T13:45:25;1.70;;;0.40;;
30472;SDS011;17263;48.160;11.452;2023-08-06T13:47:51;1.47;;;0.43;;
30472;SDS011;17263;48.160;11.452;2023-08-06T13:50:17;1.47;;;0.60;;
30472;SDS011;17263;48.160;11.452;2023-08-06T13:52:44;2.00;;;0.60;;
30472;SDS011;17263;48.160;11.452;2023-08-06T13:55:10;0.70;;;0.57;;
30472;SDS011;17263;48.160;11.452;2023-08-06T13:57:36;1.83;;;0.70;;
30472;SDS011;17263;48.160;11.452;2023-08-06T14:00:03;0.30;;;0.30;;
30472;SDS011;17263;48.160;11.452;2023-08-06T14:02:29;0.50;;;0.43;;
30472;SDS011;17263;48.160;11.452;2023-08-06T14:04:55;0.97;;;0.40;;
30472;SDS011;17263;48.160;11.452;2023-08-06T14:07:21;1.33;;;0.40;;
30472;SDS011;17263;48.160;11.452;2023-08-06T14:09:47;0.40;;;0.30;;
30472;SDS011;17263;48.160;11.452;2023-08-06T14:12:16;0.63;;;0.40;;
30472;SDS011;17263;48.160;11.452;2023-08-06T14:14:42;1.40;;;0.60;;
30472;SDS011;17263;48.160;11.452;2023-08-06T14:17:09;0.23;;;0.23;;
30472;SDS011;17263;48.160;11.452;2023-08-06T14:19:35;0.57;;;0.40;;
30472;SDS011;17263;48.160;11.452;2023-08-06T14:22:01;1.63;;;0.50;;
30472;SDS011;17263;48.160;11.452;2023-08-06T14:24:27;0.43;;;0.43;;
30472;SDS011;17263;48.160;11.452;2023-08-06T14:26:53;0.73;;;0.60;;
30472;SDS011;17263;48.160;11.452;2023-08-06T14:29:20;0.30;;;0.20;;
30472;SDS011;17263;48.160;11.452;2023-08-06T14:31:46;2.80;;;0.30;;
30472;SDS011;17263;48.160;11.452;2023-08-06T14:34:12;0.50;;;0.50;;
30472;SDS011;17263;48.160;11.452;2023-08-06T14:36:38;0.47;;;0.30;;
30472;SDS011;17263;48.160;11.452;2023-08-06T14:39:04;0.90;;;0.50;;
30472;SDS011;17263;48.160;11.452;2023-08-06T14:41:30;1.13;;;0.30;;
30472;SDS011;17263;48.160;11.452;2023-08-06T14:43:56;0.63;;;0.30;;
30472;SDS011;17263;48.160;11.452;2023-08-06T14:46:22;0.80;;;0.50;;